createdAt,value
2023-03-30T00:02:05.288Z,4.60
2023-03-30T00:04:36.910Z,4.17
2023-03-30T00:07:06.278Z,4.27
2023-03-30T00:09:33.323Z,4.13
2023-03-30T00:12:03.820Z,4.10
2023-03-30T00:14:37.517Z,4.50
2023-03-30T00:17:05.078Z,4.43
2023-03-30T00:19:31.806Z,4.50
2023-03-30T00:21:59.607Z,4.20
2023-03-30T00:24:36.831Z,4.07
2023-03-30T00:27:04.159Z,4.33
2023-03-30T00:29:31.178Z,4.17
2023-03-30T00:32:05.778Z,4.20
2023-03-30T00:34:32.750Z,4.20
2023-03-30T00:37:03.217Z,4.13
2023-03-30T00:39:33.827Z,4.17
2023-03-30T00:42:03.807Z,3.73
2023-03-30T00:45:07.624Z,3.90
2023-03-30T00:47:42.183Z,4.17
2023-03-30T00:50:09.970Z,4.20
2023-03-30T00:52:37.483Z,3.77
2023-03-30T00:55:14.184Z,4.17
2023-03-30T00:57:43.389Z,4.30
2023-03-30T01:00:12.662Z,4.10
2023-03-30T01:02:53.457Z,3.70
2023-03-30T01:05:32.076Z,4.07
2023-03-30T01:07:58.866Z,3.70
2023-03-30T01:10:26.119Z,4.20
2023-03-30T01:12:52.931Z,4.10
2023-03-30T01:15:23.773Z,3.90
2023-03-30T01:18:15.787Z,3.87
2023-03-30T01:21:04.202Z,3.40
2023-03-30T01:23:53.048Z,3.93
2023-03-30T01:26:47.738Z,4.50
2023-03-30T01:29:21.016Z,3.30
2023-03-30T01:32:08.518Z,3.57
2023-03-30T01:34:53.856Z,4.00
2023-03-30T01:37:44.185Z,3.70
2023-03-30T01:40:20.532Z,3.73
2023-03-30T01:43:13.232Z,3.47
2023-03-30T01:45:55.919Z,3.70
2023-03-30T01:48:33.549Z,3.50
2023-03-30T01:51:06.815Z,3.70
2023-03-30T01:53:59.442Z,3.47
2023-03-30T01:56:29.291Z,3.73
2023-03-30T01:59:03.307Z,3.90
2023-03-30T02:01:33.351Z,3.60
2023-03-30T02:04:02.062Z,3.60
2023-03-30T02:06:38.946Z,3.83
2023-03-30T02:09:11.568Z,4.53
2023-03-30T02:11:49.277Z,4.03
2023-03-30T02:14:17.930Z,3.13
2023-03-30T02:16:49.781Z,3.30
2023-03-30T02:19:19.650Z,3.37
2023-03-30T02:21:48.048Z,3.00
2023-03-30T02:24:22.968Z,3.57
2023-03-30T02:26:51.771Z,3.07
2023-03-30T02:29:19.181Z,2.80
2023-03-30T02:31:47.194Z,3.63
2023-03-30T02:34:39.702Z,3.17
2023-03-30T02:37:46.473Z,3.70
2023-03-30T02:40:47.769Z,3.20
2023-03-30T02:43:44.914Z,2.80
2023-03-30T02:46:27.953Z,3.30
2023-03-30T02:49:46.746Z,3.10
2023-03-30T02:52:22.516Z,3.10
2023-03-30T02:54:55.714Z,3.30
2023-03-30T02:57:51.299Z,3.30
2023-03-30T03:00:50.711Z,3.50
2023-03-30T03:03:31.776Z,2.93
2023-03-30T03:06:02.570Z,3.50
2023-03-30T03:08:40.019Z,3.17
2023-03-30T03:11:11.612Z,3.10
2023-03-30T03:13:39.390Z,3.30
2023-03-30T03:16:10.089Z,3.63
2023-03-30T03:18:44.727Z,3.20
2023-03-30T03:21:16.085Z,3.60
2023-03-30T03:23:43.103Z,3.80
2023-03-30T03:26:18.692Z,3.53
2023-03-30T03:28:45.691Z,3.80
2023-03-30T03:31:14.096Z,4.17
2023-03-30T03:33:46.473Z,3.93
2023-03-30T03:36:22.885Z,4.50
2023-03-30T03:38:52.580Z,4.43
2023-03-30T03:41:19.351Z,4.50
2023-03-30T03:43:45.963Z,4.30
2023-03-30T03:46:15.142Z,4.83
2023-03-30T03:48:46.473Z,5.30
2023-03-30T03:51:13.310Z,5.30
2023-03-30T03:53:40.020Z,4.80
2023-03-30T03:56:16.815Z,5.00
2023-03-30T03:58:43.599Z,4.83
2023-03-30T04:01:14.463Z,5.10
2023-03-30T04:03:45.922Z,4.63
2023-03-30T04:06:15.854Z,5.03
2023-03-30T04:08:43.942Z,5.50
2023-03-30T04:11:22.730Z,4.80
2023-03-30T04:14:18.759Z,4.77
2023-03-30T04:17:08.638Z,5.17
2023-03-30T04:19:54.002Z,4.40
2023-03-30T04:22:57.240Z,4.50
2023-03-30T04:25:40.707Z,5.30
2023-03-30T04:28:24.274Z,4.40
2023-03-30T04:31:10.625Z,4.43
2023-03-30T04:34:02.670Z,4.23
2023-03-30T04:36:54.201Z,3.77
2023-03-30T04:39:23.822Z,4.43
2023-03-30T04:42:08.145Z,4.30
2023-03-30T04:44:51.847Z,4.20
2023-03-30T04:47:26.120Z,3.90
2023-03-30T04:50:16.157Z,3.53
2023-03-30T04:53:03.161Z,3.40
2023-03-30T04:55:51.161Z,4.00
2023-03-30T04:58:39.322Z,3.40
2023-03-30T05:01:24.854Z,4.40
2023-03-30T05:04:11.977Z,3.83
2023-03-30T05:06:54.115Z,3.60
2023-03-30T05:09:41.488Z,3.80
2023-03-30T05:12:26.776Z,3.47
2023-03-30T05:15:06.496Z,3.97
2023-03-30T05:18:02.340Z,3.47
2023-03-30T05:20:48.396Z,3.77
2023-03-30T05:23:51.180Z,3.20
2023-03-30T05:26:36.899Z,3.43
2023-03-30T05:29:35.712Z,3.70
2023-03-30T05:32:43.297Z,3.40
2023-03-30T05:35:30.959Z,3.80
2023-03-30T05:38:19.532Z,3.60
2023-03-30T05:41:54.905Z,3.33
2023-03-30T05:44:41.506Z,2.73
2023-03-30T05:47:32.000Z,3.27
2023-03-30T05:50:42.117Z,3.10
2023-03-30T05:53:17.937Z,2.90
2023-03-30T05:56:14.699Z,3.20
2023-03-30T05:58:55.568Z,3.00
2023-03-30T06:04:55.505Z,3.33
2023-03-30T06:10:07.534Z,2.60
2023-03-30T06:12:34.503Z,3.10
2023-03-30T06:15:05.226Z,3.07
2023-03-30T06:17:56.575Z,3.10
2023-03-30T06:20:34.786Z,3.40
2023-03-30T06:23:01.994Z,2.90
2023-03-30T06:25:30.209Z,3.20
2023-03-30T06:28:00.151Z,3.20
2023-03-30T06:30:27.375Z,2.90
2023-03-30T06:32:57.443Z,2.97
2023-03-30T06:35:32.899Z,3.07
2023-03-30T06:38:00.604Z,2.90
2023-03-30T06:40:27.484Z,2.93
2023-03-30T06:42:55.758Z,2.97
2023-03-30T06:45:43.237Z,3.40
2023-03-30T06:48:10.037Z,2.90
2023-03-30T06:50:40.652Z,2.80
2023-03-30T06:53:17.621Z,3.10
2023-03-30T06:55:52.019Z,3.00
2023-03-30T06:58:19.128Z,2.80
2023-03-30T07:00:49.537Z,2.80
2023-03-30T07:03:54.682Z,2.93
2023-03-30T07:06:27.903Z,2.77
2023-03-30T07:08:55.985Z,2.87
2023-03-30T07:11:26.224Z,2.90
2023-03-30T07:13:56.269Z,3.40
2023-03-30T07:16:22.970Z,3.13
2023-03-30T07:18:49.811Z,2.80
2023-03-30T07:21:19.707Z,2.87
2023-03-30T07:23:47.562Z,2.80
2023-03-30T07:26:25.480Z,2.50
2023-03-30T07:28:58.518Z,2.63
2023-03-30T07:31:25.856Z,2.90
2023-03-30T07:33:53.110Z,3.37
2023-03-30T07:36:24.226Z,2.70
2023-03-30T07:38:52.109Z,2.87
2023-03-30T07:41:19.729Z,2.80
2023-03-30T07:43:50.213Z,3.00
2023-03-30T07:46:17.153Z,2.77
2023-03-30T07:48:47.296Z,3.10
2023-03-30T07:51:14.892Z,2.77
2023-03-30T07:54:06.782Z,3.00
2023-03-30T07:56:52.780Z,3.07
2023-03-30T07:59:20.865Z,3.90
2023-03-30T08:01:50.344Z,2.63
2023-03-30T08:04:37.067Z,3.10
2023-03-30T08:07:04.639Z,2.50
2023-03-30T08:09:32.877Z,3.23
2023-03-30T08:12:07.246Z,3.10
2023-03-30T08:14:37.360Z,2.80
2023-03-30T08:17:07.746Z,2.93
2023-03-30T08:19:34.454Z,2.53
2023-03-30T08:22:08.548Z,2.57
2023-03-30T08:24:35.168Z,3.00
2023-03-30T08:27:04.896Z,3.17
2023-03-30T08:29:39.565Z,2.83
2023-03-30T08:32:07.020Z,4.57
2023-03-30T08:34:37.300Z,3.20
2023-03-30T08:37:13.204Z,3.30
2023-03-30T08:39:39.970Z,5.57
2023-03-30T08:42:17.549Z,4.17
2023-03-30T08:44:46.732Z,2.97
2023-03-30T08:47:16.578Z,3.13
2023-03-30T08:49:53.246Z,2.87
2023-03-30T08:52:43.481Z,3.20
2023-03-30T08:56:19.130Z,3.33
2023-03-30T08:58:51.870Z,3.30
2023-03-30T09:01:19.717Z,3.77
2023-03-30T09:05:27.477Z,3.83
2023-03-30T09:08:03.143Z,3.83
2023-03-30T09:10:41.466Z,3.20
2023-03-30T09:13:10.850Z,3.30
2023-03-30T09:16:02.683Z,2.87
2023-03-30T09:18:37.576Z,3.20
2023-03-30T09:21:06.436Z,3.27
2023-03-30T09:23:36.277Z,3.00
2023-03-30T09:26:08.894Z,3.10
2023-03-30T09:28:49.984Z,3.00
2023-03-30T09:31:38.047Z,3.43
2023-03-30T09:34:08.981Z,4.20
2023-03-30T09:36:44.253Z,4.07
2023-03-30T09:39:21.404Z,3.90
2023-03-30T09:42:03.423Z,4.30
2023-03-30T09:44:37.961Z,3.80
2023-03-30T09:47:22.896Z,4.17
2023-03-30T09:49:56.380Z,4.27
2023-03-30T09:52:25.474Z,3.33
2023-03-30T09:54:52.448Z,3.40
2023-03-30T09:57:26.400Z,3.40
2023-03-30T09:59:56.060Z,3.30
2023-03-30T10:02:25.484Z,3.10
2023-03-30T10:04:58.559Z,3.00
2023-03-30T10:07:34.352Z,2.97
2023-03-30T10:10:13.230Z,2.80
2023-03-30T10:12:39.884Z,2.80
2023-03-30T10:15:07.863Z,2.60
2023-03-30T10:17:35.152Z,2.67
2023-03-30T10:20:29.699Z,2.50
2023-03-30T10:23:02.673Z,3.00
2023-03-30T10:25:31.584Z,2.50
2023-03-30T10:28:02.810Z,2.20
2023-03-30T10:30:44.149Z,2.50
2023-03-30T10:33:11.212Z,2.70
2023-03-30T10:35:38.450Z,2.60
2023-03-30T10:38:15.162Z,2.60
2023-03-30T10:40:44.195Z,2.87
2023-03-30T10:43:26.478Z,2.63
2023-03-30T10:46:18.375Z,2.80
2023-03-30T10:49:17.004Z,2.90
2023-03-30T10:52:30.584Z,3.30
2023-03-30T10:55:15.113Z,2.80
2023-03-30T10:58:00.043Z,2.57
2023-03-30T11:00:32.376Z,2.73
2023-03-30T11:03:15.049Z,2.67
2023-03-30T11:05:45.834Z,2.70
2023-03-30T11:08:16.197Z,3.23
2023-03-30T11:10:48.336Z,2.70
2023-03-30T11:13:27.884Z,2.70
2023-03-30T11:15:54.698Z,3.17
2023-03-30T11:19:09.484Z,2.80
2023-03-30T11:22:08.139Z,2.70
2023-03-30T11:24:39.767Z,2.83
2023-03-30T11:27:36.977Z,2.50
2023-03-30T11:30:28.403Z,2.93
2023-03-30T11:33:07.378Z,2.57
2023-03-30T11:35:41.849Z,2.73
2023-03-30T11:39:00.218Z,3.27
2023-03-30T11:41:42.047Z,4.00
2023-03-30T11:44:11.232Z,2.43
2023-03-30T11:46:52.264Z,2.63
2023-03-30T11:49:52.424Z,2.60
2023-03-30T11:56:56.490Z,2.03
2023-03-30T11:59:39.686Z,2.53
2023-03-30T12:02:36.116Z,1.80
2023-03-30T12:05:27.652Z,2.17
2023-03-30T12:08:09.485Z,1.90
2023-03-30T12:10:42.668Z,2.17
2023-03-30T12:13:48.376Z,2.00
2023-03-30T12:17:27.972Z,2.23
2023-03-30T12:33:03.993Z,2.90
2023-03-30T12:36:01.337Z,2.53
2023-03-30T12:38:48.724Z,2.50
2023-03-30T12:41:18.505Z,2.37
2023-03-30T12:44:39.121Z,2.23
2023-03-30T12:47:35.838Z,2.37
2023-03-30T12:50:24.652Z,2.33
2023-03-30T12:53:29.604Z,2.57
2023-03-30T12:56:17.750Z,2.87
2023-03-30T12:59:22.748Z,2.23
2023-03-30T13:02:17.457Z,2.73
2023-03-30T13:04:46.825Z,2.53
2023-03-30T13:07:25.494Z,2.30
2023-03-30T13:09:55.480Z,2.87
2023-03-30T13:12:38.871Z,2.40
2023-03-30T13:15:26.200Z,3.43
2023-03-30T13:17:56.055Z,3.20
2023-03-30T13:20:32.971Z,3.00
2023-03-30T13:23:13.489Z,3.37
2023-03-30T13:25:45.727Z,3.93
2023-03-30T13:28:48.894Z,2.67
2023-03-30T13:31:15.985Z,3.27
2023-03-30T13:33:57.432Z,3.43
2023-03-30T13:36:30.730Z,3.73
2023-03-30T13:39:13.841Z,3.37
2023-03-30T13:41:59.660Z,3.93
2023-03-30T13:44:56.762Z,3.80
2023-03-30T13:47:57.472Z,2.90
2023-03-30T13:50:29.331Z,3.43
2023-03-30T13:53:14.601Z,2.83
2023-03-30T13:55:54.368Z,2.90
2023-03-30T13:58:24.567Z,3.27
2023-03-30T14:00:57.493Z,2.53
2023-03-30T14:04:05.728Z,4.60
2023-03-30T14:06:38.575Z,2.63
2023-03-30T14:09:08.299Z,2.50
2023-03-30T14:11:44.795Z,3.20
2023-03-30T14:14:23.339Z,3.30
2023-03-30T14:16:51.502Z,5.20
2023-03-30T14:19:36.867Z,3.43
2023-03-30T14:22:15.231Z,3.20
2023-03-30T14:25:27.252Z,3.00
2023-03-30T14:27:58.981Z,3.00
2023-03-30T14:30:55.141Z,3.20
2023-03-30T14:33:22.572Z,3.63
2023-03-30T14:35:59.622Z,2.73
2023-03-30T14:38:30.358Z,2.37
2023-03-30T14:40:57.309Z,2.37
2023-03-30T14:43:31.722Z,2.07
2023-03-30T14:46:03.110Z,2.20
2023-03-30T14:48:35.884Z,2.23
2023-03-30T14:51:04.589Z,2.60
2023-03-30T14:53:31.492Z,2.00
2023-03-30T14:56:00.756Z,2.50
2023-03-30T14:58:31.558Z,2.40
2023-03-30T15:01:00.764Z,3.27
2023-03-30T15:03:34.522Z,2.30
2023-03-30T15:06:02.979Z,2.60
2023-03-30T15:08:36.665Z,3.17
2023-03-30T15:11:37.460Z,3.17
2023-03-30T15:14:35.584Z,2.50
2023-03-30T15:17:14.160Z,2.80
2023-03-30T15:19:41.578Z,2.73
2023-03-30T15:22:24.468Z,2.77
2023-03-30T15:24:54.838Z,3.10
2023-03-30T15:27:22.318Z,2.90
2023-03-30T15:30:00.430Z,2.60
2023-03-30T15:32:57.871Z,3.10
2023-03-30T15:35:34.414Z,3.30
2023-03-30T15:38:14.369Z,2.63
2023-03-30T15:41:03.173Z,2.70
2023-03-30T15:43:53.709Z,3.00
2023-03-30T15:46:24.659Z,2.90
2023-03-30T15:48:53.597Z,2.83
2023-03-30T15:51:30.528Z,3.60
2023-03-30T15:54:03.142Z,3.20
2023-03-30T15:56:39.548Z,2.97
2023-03-30T15:59:15.680Z,2.90
2023-03-30T16:01:52.851Z,2.27
2023-03-30T16:04:22.447Z,3.00
2023-03-30T16:06:52.800Z,3.07
2023-03-30T16:09:19.786Z,3.07
2023-03-30T16:11:46.857Z,3.23
2023-03-30T16:14:26.553Z,2.60
2023-03-30T16:16:53.311Z,2.80
2023-03-30T16:19:20.254Z,3.10
2023-03-30T16:21:53.330Z,2.00
2023-03-30T16:24:20.362Z,2.57
2023-03-30T16:26:49.832Z,3.20
2023-03-30T16:29:39.889Z,3.40
2023-03-30T16:32:06.919Z,4.40
2023-03-30T16:34:37.027Z,3.47
2023-03-30T16:37:07.078Z,2.20
2023-03-30T16:39:43.039Z,2.80
2023-03-30T16:42:09.786Z,2.37
2023-03-30T16:44:36.512Z,3.30
2023-03-30T16:47:09.002Z,2.90
2023-03-30T16:49:39.480Z,2.80
2023-03-30T16:52:08.808Z,3.60
2023-03-30T16:54:38.403Z,3.13
2023-03-30T16:57:10.230Z,2.67
2023-03-30T16:59:38.104Z,2.47
2023-03-30T17:02:29.777Z,2.67
2023-03-30T17:04:56.539Z,2.50
2023-03-30T17:07:23.384Z,3.00
2023-03-30T17:09:50.098Z,3.00
2023-03-30T17:12:16.767Z,4.20
2023-03-30T17:14:43.458Z,3.60
2023-03-30T17:17:14.981Z,3.30
2023-03-30T17:19:42.230Z,3.17
2023-03-30T17:22:08.922Z,3.10
2023-03-30T17:24:45.002Z,3.67
2023-03-30T17:27:13.627Z,3.70
2023-03-30T17:29:40.997Z,3.47
2023-03-30T17:32:13.802Z,2.90
2023-03-30T17:34:40.621Z,4.47
2023-03-30T17:37:08.783Z,3.80
2023-03-30T17:39:44.551Z,4.60
2023-03-30T17:42:13.745Z,3.57
2023-03-30T17:44:40.526Z,3.10
2023-03-30T17:47:16.700Z,3.60
2023-03-30T17:49:43.424Z,3.30
2023-03-30T17:52:10.633Z,3.60
2023-03-30T17:54:50.672Z,3.20
2023-03-30T17:57:17.391Z,4.27
2023-03-30T17:59:44.137Z,3.77
2023-03-30T18:02:20.947Z,3.57
2023-03-30T18:04:51.479Z,4.40
2023-03-30T18:07:18.255Z,3.43
2023-03-30T18:09:54.425Z,3.83
2023-03-30T18:12:21.502Z,3.47
2023-03-30T18:14:48.540Z,2.63
2023-03-30T18:17:24.615Z,2.90
2023-03-30T18:19:54.148Z,3.03
2023-03-30T18:22:20.953Z,2.60
2023-03-30T18:24:55.669Z,2.60
2023-03-30T18:27:22.573Z,2.70
2023-03-30T18:29:49.535Z,2.53
2023-03-30T18:32:29.134Z,2.77
2023-03-30T18:35:09.964Z,2.50
2023-03-30T18:37:36.615Z,2.20
2023-03-30T18:40:07.087Z,2.20
2023-03-30T18:42:45.639Z,2.60
2023-03-30T18:45:26.535Z,2.93
2023-03-30T18:47:56.742Z,2.50
2023-03-30T18:50:29.396Z,2.60
2023-03-30T18:52:57.162Z,2.93
2023-03-30T18:55:27.344Z,3.30
2023-03-30T18:57:58.098Z,3.27
2023-03-30T19:00:29.700Z,3.30
2023-03-30T19:02:57.351Z,3.43
2023-03-30T19:05:30.755Z,3.23
2023-03-30T19:07:57.700Z,3.00
2023-03-30T19:10:29.574Z,3.60
2023-03-30T19:12:56.873Z,3.40
2023-03-30T19:15:33.135Z,3.60
2023-03-30T19:18:01.182Z,3.20
2023-03-30T19:20:29.573Z,3.60
2023-03-30T19:23:04.652Z,3.40
2023-03-30T19:25:32.141Z,3.67
2023-03-30T19:28:03.863Z,3.27
2023-03-30T19:30:36.775Z,3.80
2023-03-30T19:33:19.865Z,3.97
2023-03-30T19:35:46.963Z,3.80
2023-03-30T19:38:17.717Z,3.90
2023-03-30T19:40:46.968Z,4.40
2023-03-30T19:43:13.824Z,4.27
2023-03-30T19:45:40.714Z,3.90
2023-03-30T19:48:15.008Z,3.63
2023-03-30T19:50:41.750Z,5.10
2023-03-30T19:53:10.977Z,5.60
2023-03-30T19:55:46.759Z,4.90
2023-03-30T19:58:13.693Z,4.80
2023-03-30T20:00:43.570Z,4.23
2023-03-30T20:03:19.447Z,4.60
2023-03-30T20:05:50.664Z,4.53
2023-03-30T20:08:24.262Z,5.20
2023-03-30T20:10:58.857Z,4.80
2023-03-30T20:13:33.824Z,4.87
2023-03-30T20:16:02.609Z,5.53
2023-03-30T20:18:31.468Z,4.80
2023-03-30T20:21:03.956Z,4.63
2023-03-30T20:23:35.547Z,4.87
2023-03-30T20:26:09.280Z,4.93
2023-03-30T20:28:36.340Z,4.70
2023-03-30T20:31:03.589Z,4.33
2023-03-30T20:33:33.432Z,4.80
2023-03-30T20:36:05.536Z,5.40
2023-03-30T20:38:32.722Z,4.90
2023-03-30T20:41:15.688Z,4.57
2023-03-30T20:43:57.293Z,3.80
2023-03-30T20:46:26.180Z,4.53
2023-03-30T20:49:12.352Z,4.83
2023-03-30T20:51:50.094Z,3.53
2023-03-30T20:54:21.847Z,3.80
2023-03-30T20:56:48.758Z,3.93
2023-03-30T20:59:22.634Z,3.80
2023-03-30T21:01:52.273Z,4.07
2023-03-30T21:04:19.684Z,4.03
2023-03-30T21:07:12.245Z,3.80
2023-03-30T21:09:45.471Z,3.77
2023-03-30T21:12:21.491Z,4.43
2023-03-30T21:14:50.667Z,4.17
2023-03-30T21:17:17.448Z,4.33
2023-03-30T21:19:52.055Z,4.80
2023-03-30T21:22:18.902Z,4.27
2023-03-30T21:24:47.832Z,4.23
2023-03-30T21:27:24.739Z,4.00
2023-03-30T21:29:51.701Z,4.63
2023-03-30T21:32:18.741Z,4.80
2023-03-30T21:34:54.811Z,4.33
2023-03-30T21:37:38.724Z,5.07
2023-03-30T21:40:18.031Z,4.07
2023-03-30T21:45:33.117Z,4.27
2023-03-30T21:47:59.876Z,4.30
2023-03-30T21:50:57.152Z,4.07
2023-03-30T21:53:25.137Z,3.80
2023-03-30T21:56:04.470Z,4.80
2023-03-30T21:58:34.857Z,4.00
2023-03-30T22:01:31.084Z,4.40
2023-03-30T22:04:00.050Z,4.20
2023-03-30T22:06:33.633Z,4.00
2023-03-30T22:09:03.639Z,3.67
2023-03-30T22:11:32.829Z,3.37
2023-03-30T22:14:03.831Z,3.80
2023-03-30T22:16:36.793Z,3.60
2023-03-30T22:19:04.664Z,3.30
2023-03-30T22:21:35.722Z,3.47
2023-03-30T22:24:07.373Z,3.10
2023-03-30T22:26:50.574Z,3.23
2023-03-30T22:29:39.549Z,2.97
2023-03-30T22:32:35.964Z,3.90
2023-03-30T22:35:02.926Z,3.10
2023-03-30T22:37:47.504Z,3.30
2023-03-30T22:40:16.866Z,3.70
2023-03-30T22:42:45.310Z,3.27
2023-03-30T22:45:16.668Z,2.97
2023-03-30T22:50:42.816Z,3.23
2023-03-30T22:53:13.671Z,4.10
2023-03-30T22:55:42.818Z,3.20
2023-03-30T22:58:13.015Z,3.20
2023-03-30T23:03:53.180Z,3.67
2023-03-30T23:06:27.525Z,2.80
2023-03-30T23:11:56.635Z,3.40
2023-03-30T23:14:39.581Z,3.97
2023-03-30T23:17:18.978Z,3.43
2023-03-30T23:19:51.073Z,3.83
2023-03-30T23:22:31.299Z,3.17
2023-03-30T23:25:00.437Z,3.53
2023-03-30T23:31:06.440Z,3.30
2023-03-30T23:33:07.587Z,3.03
2023-03-30T23:35:48.573Z,3.67
2023-03-30T23:38:18.297Z,3.43
2023-03-30T23:40:52.453Z,3.10
2023-03-30T23:43:22.260Z,2.87
2023-03-30T23:46:20.090Z,3.30
2023-03-30T23:48:50.377Z,3.70
2023-03-30T23:51:34.004Z,3.07
2023-03-30T23:54:27.128Z,3.60
